Cosco Belgium — VRLT8 — position and weather

sailwx.info

Track history (hours):
 
Tides and Currents Weather Stations Pressure Air Temp Water Temp Dewpoint Dewpoint Depression Visibility Wind Speed Wind Dir Waves Ship Positions

Cosco Belgium

Last reported at 2017-Sep-09 01:30 UTC. Time now 2017-Sep-21 05:27 UTC.
Position N 31°23' E 032°21'.
Warning: this ship's position is 12 days out of date.

Length 366 m; draft 11.7 m.

Type: Ship (hazmat cat A). MMSI: 477427500.

Date/timePositionNaut miles runAvg speedWind from/ knotsBaromVisibWave heightAir tempDewpointWater temp
2017-Sep-09 01:30N 31°23' E 032°21'50 4.9
2017-Sep-08 15:15N 31°54' E 031°36'313.3
2017-Sep-08 15:00N 31°56' E 031°32'6913.5
2017-Sep-08 09:54N 32°22' E 030°17'  
2017-Sep-06 02:06N 36°27' E 014°43'215.6
2017-Sep-06 02:00N 36°28' E 014°41'815.5
2017-Sep-06 01:30N 36°29' E 014°32'715.2
2017-Sep-06 01:00N 36°31' E 014°23'815.1
2017-Sep-06 00:30N 36°33' E 014°14'815.3
2017-Sep-06 00:00N 36°34' E 014°04'815.2
2017-Sep-05 23:30N 36°36' E 013°55'715.1
2017-Sep-05 23:00N 36°37' E 013°46'815.0
2017-Sep-05 22:30N 36°39' E 013°37'714.8
2017-Sep-05 22:00N 36°41' E 013°28'714.6
2017-Sep-05 21:30N 36°43' E 013°19'714.6
2017-Sep-05 21:00N 36°44' E 013°10'714.5
2017-Sep-05 20:30N 36°46' E 013°01'714.4
2017-Sep-05 20:00N 36°47' E 012°53'1314.4
2017-Sep-05 19:07N 36°51' E 012°37'414.7
2017-Sep-05 18:50N 36°53' E 012°33'37914.3
2017-Sep-04 16:16N 37°08' E 004°38'313.7
2017-Sep-04 16:00N 37°07' E 004°34'713.8
2017-Sep-04 15:30N 37°07' E 004°25'714.1
2017-Sep-04 15:00N 37°06' E 004°16'714.5
2017-Sep-04 14:30N 37°06' E 004°07'714.6
2017-Sep-04 14:00N 37°05' E 003°58'714.4
2017-Sep-04 13:30N 37°04' E 003°49'1414.3
2017-Sep-04 12:33N 37°01' E 003°32'114.3
2017-Sep-04 12:30N 37°01' E 003°31'714.4
2017-Sep-04 12:00N 36°60' E 003°23'714.7
2017-Sep-04 11:30N 36°59' E 003°13'714.7
2017-Sep-04 11:00N 36°58' E 003°04'714.7
2017-Sep-04 10:30N 36°56' E 002°55'714.5
2017-Sep-04 10:00N 36°55' E 002°46'714.4
2017-Sep-04 09:30N 36°54' E 002°37'814.0
2017-Sep-04 08:58N 36°53' E 002°28'816.3
2017-Sep-04 08:29N 36°52' E 002°18'816.3
2017-Sep-04 08:00N 36°50' E 002°09'816.3
2017-Sep-04 07:30N 36°49' E 001°59'816.3
2017-Sep-04 07:00N 36°48' E 001°49'816.2
2017-Sep-04 06:30N 36°47' E 001°39'816.1
2017-Sep-04 06:00N 36°45' E 001°29'816.5
2017-Sep-04 05:30N 36°44' E 001°19'816.7
2017-Sep-04 05:00N 36°43' E 001°08'816.5
2017-Sep-04 04:30N 36°41' E 000°58'816.6
2017-Sep-04 04:00N 36°40' E 000°48'816.9
2017-Sep-04 03:30N 36°39' E 000°38'817.0
2017-Sep-04 03:00N 36°37' E 000°27'816.9
2017-Sep-04 02:30N 36°36' E 000°17'916.9
2017-Sep-04 02:00N 36°35' E 000°06'816.8
2017-Sep-04 01:30N 36°33' W 000°04'816.8
2017-Sep-04 01:00N 36°33' W 000°15'816.4
2017-Sep-04 00:30N 36°31' W 000°25'816.2
2017-Sep-04 00:00N 36°29' W 000°34'816.2
2017-Sep-03 23:30N 36°28' W 000°44'816.4
2017-Sep-03 23:00N 36°27' W 000°55'816.7
2017-Sep-03 22:29N 36°25' W 001°05'817.2
2017-Sep-03 22:00N 36°24' W 001°15'917.1
2017-Sep-03 21:30N 36°22' W 001°26'817.1
2017-Sep-03 21:00N 36°21' W 001°36'917.4
2017-Sep-03 20:30N 36°20' W 001°47'917.7
2017-Sep-03 20:00N 36°18' W 001°58'917.9
2017-Sep-03 19:29N 36°17' W 002°09'917.9
2017-Sep-03 19:00N 36°16' W 002°20'1117.7
2017-Sep-03 18:22N 36°14' W 002°33'717.6
2017-Sep-03 18:00N 36°13' W 002°41'10416.7
2017-Sep-03 11:48N 36°01' W 004°48'516.2
2017-Sep-03 11:30N 36°00' W 004°54'1117.0
2017-Sep-03 10:52N 35°60' W 005°08'617.0
2017-Sep-03 10:30N 35°59' W 005°15'816.7
2017-Sep-03 10:00N 35°58' W 005°25'3515.4
2017-Sep-03 07:44N 35°55' W 006°08'415.6
2017-Sep-03 07:28N 35°54' W 006°13'915.6
2017-Sep-03 06:55N 35°56' W 006°24'8716.0
2017-Sep-03 01:27N 36°18' W 008°08'716.7
2017-Sep-03 01:00N 36°20' W 008°17'916.6
2017-Sep-03 00:27N 36°23' W 008°28'716.3
2017-Sep-03 00:00N 36°25' W 008°37'816.4
2017-Sep-02 23:30N 36°27' W 008°47'816.6
2017-Sep-02 23:00N 36°29' W 008°57'816.5
2017-Sep-02 22:30N 36°32' W 009°06'816.5
2017-Sep-02 22:00N 36°34' W 009°16'816.5
2017-Sep-02 21:30N 36°39' W 009°24'917.1
2017-Sep-02 21:00N 36°46' W 009°31'816.4
2017-Sep-02 20:30N 36°53' W 009°35'917.1
2017-Sep-02 20:00N 37°02' W 009°37'817.0
2017-Sep-02 19:30N 37°10' W 009°40'917.2
2017-Sep-02 19:00N 37°18' W 009°42'917.3
2017-Sep-02 18:30N 37°27' W 009°45'917.0
2017-Sep-02 18:00N 37°35' W 009°47'816.6
2017-Sep-02 17:30N 37°43' W 009°50'816.6
2017-Sep-02 17:00N 37°51' W 009°52'816.9
2017-Sep-02 16:30N 37°59' W 009°54'917.3
2017-Sep-02 16:00N 38°08' W 009°56'917.3
2017-Sep-02 15:30N 38°16' W 009°59'816.7
2017-Sep-02 15:00N 38°24' W 010°01'816.5
2017-Sep-02 14:30N 38°33' W 010°04'816.5
2017-Sep-02 14:00N 38°41' W 010°06'816.4
2017-Sep-02 13:30N 38°49' W 010°07'816.8
2017-Sep-02 13:00N 38°57' W 010°08'816.8
2017-Sep-02 12:30N 39°05' W 010°08'816.9
2017-Sep-02 12:01N 39°14' W 010°07'816.7
2017-Sep-02 11:30N 39°22' W 010°07'816.5
2017-Sep-02 11:00N 39°30' W 010°07'816.8
2017-Sep-02 10:30N 39°39' W 010°06'816.8
2017-Sep-02 10:00N 39°47' W 010°06'816.7
2017-Sep-02 09:30N 39°56' W 010°06'816.6
2017-Sep-02 09:01N 40°04' W 010°06'816.5
2017-Sep-02 08:30N 40°12' W 010°06'816.2
2017-Sep-02 08:00N 40°20' W 010°06'816.3
2017-Sep-02 07:30N 40°29' W 010°06'816.6
2017-Sep-02 07:00N 40°37' W 010°06'816.5
2017-Sep-02 06:30N 40°45' W 010°06'52816.2
2017-Aug-31 21:55N 48°58' W 005°40'916.2
2017-Aug-31 21:20N 49°04' W 005°30'4616.6
2017-Aug-31 18:33N 49°35' W 004°37'116.6
2017-Aug-31 18:29N 49°36' W 004°36'916.6
2017-Aug-31 17:57N 49°42' W 004°26'716.5
2017-Aug-31 17:30N 49°47' W 004°17'816.4
2017-Aug-31 17:00N 49°52' W 004°08'816.1
2017-Aug-31 16:30N 49°57' W 003°58'815.9
2017-Aug-31 16:00N 50°03' W 003°49'815.6
2017-Aug-31 15:30N 50°08' W 003°41'815.4
2017-Aug-31 15:00N 50°14' W 003°33'815.6
2017-Aug-31 14:30N 50°21' W 003°28'5 9.6
2017-Aug-31 14:00N 50°26' W 003°25'816.2
2017-Aug-31 13:30N 50°26' W 003°12'917.7
2017-Aug-31 13:00N 50°26' W 002°58'917.3
2017-Aug-31 12:30N 50°25' W 002°45'917.4
2017-Aug-31 12:00N 50°26' W 002°31'917.7
2017-Aug-31 11:30N 50°26' W 002°17'1418.2
2017-Aug-31 10:44N 50°27' W 001°55'418.5
2017-Aug-31 10:30N 50°27' W 001°49'1018.8
2017-Aug-31 09:59N 50°28' W 001°33'918.9
2017-Aug-31 09:30N 50°28' W 001°19'1118.9
2017-Aug-31 08:56N 50°29' W 001°02'818.8
2017-Aug-31 08:30N 50°29' W 000°50'918.6
2017-Aug-31 08:00N 50°30' W 000°35'918.8
2017-Aug-31 07:30N 50°30' W 000°20'918.4
2017-Aug-31 07:00N 50°31' W 000°06'918.4
2017-Aug-31 06:30N 50°32' E 000°08'918.2
2017-Aug-31 06:00N 50°34' E 000°22'918.0
2017-Aug-31 05:30N 50°37' E 000°36'917.9
2017-Aug-31 05:00N 50°43' E 000°47'917.8
2017-Aug-31 04:30N 50°48' E 000°58'917.8
2017-Aug-31 04:00N 50°54' E 001°08'918.1
2017-Aug-31 03:30N 50°60' E 001°19'918.9
2017-Aug-31 03:00N 51°06' E 001°31'1019.4
2017-Aug-31 02:30N 51°12' E 001°43'919.0
2017-Aug-31 02:00N 51°19' E 001°53'816.0
2017-Aug-31 01:30N 51°24' E 002°03'917.5
2017-Aug-31 01:00N 51°20' E 002°16'918.3
2017-Aug-31 00:30N 51°22' E 002°31'714.7
2017-Aug-31 00:00N 51°23' E 002°42'510.6
2017-Aug-30 23:30N 51°25' E 002°49'917.4
2017-Aug-30 23:00N 51°25' E 003°03'918.1
2017-Aug-30 22:30N 51°25' E 003°18'917.6
2017-Aug-30 22:00N 51°25' E 003°32'510.8
2017-Aug-30 21:30N 51°26' E 003°40'611.8
2017-Aug-30 21:00N 51°22' E 003°46'612.9
2017-Aug-30 20:30N 51°23' E 003°56'4 8.1
2017-Aug-30 20:00N 51°24' E 004°02'4 9.0
2017-Aug-30 19:30N 51°22' E 004°08'4 8.5
2017-Aug-30 19:00N 51°21' E 004°15'3 6.8
2017-Aug-30 18:30N 51°18' E 004°16'0 0.6
2017-Aug-30 17:59N 51°18' E 004°16'0 0.0
2017-Aug-30 17:29N 51°18' E 004°16'0 0.0
2017-Aug-30 16:59N 51°18' E 004°16'0 0.0
2017-Aug-30 16:29N 51°18' E 004°16'0 0.0
2017-Aug-30 15:59N 51°18' E 004°16'0 0.0
2017-Aug-30 15:29N 51°18' E 004°16'0 0.0
2017-Aug-30 14:59N 51°18' E 004°16'0 0.0
2017-Aug-30 14:29N 51°18' E 004°16'0 0.0
2017-Aug-30 13:59N 51°18' E 004°16'0 0.0
2017-Aug-30 13:29N 51°18' E 004°16'0 0.0
2017-Aug-30 12:59N 51°18' E 004°16'0 0.0
2017-Aug-30 12:29N 51°18' E 004°16'0 0.0
2017-Aug-30 11:59N 51°18' E 004°16'0 0.0
2017-Aug-30 11:29N 51°18' E 004°16'0 0.0
2017-Aug-30 10:59N 51°18' E 004°16'0 0.0
2017-Aug-30 10:26N 51°18' E 004°16'0 0.0
2017-Aug-30 09:59N 51°18' E 004°16'0 0.0
2017-Aug-30 09:26N 51°18' E 004°16'0 0.0
2017-Aug-30 08:56N 51°18' E 004°16'0 0.0
2017-Aug-30 08:29N 51°18' E 004°16'0 0.0
2017-Aug-30 07:59N 51°18' E 004°16'0 0.0
2017-Aug-30 07:29N 51°18' E 004°16'0 0.0
2017-Aug-30 06:59N 51°18' E 004°16'0 0.0
2017-Aug-30 06:26N 51°18' E 004°16'0 0.0
2017-Aug-30 05:59N 51°18' E 004°16'0 0.0
2017-Aug-30 05:29N 51°18' E 004°16'0 0.0
2017-Aug-30 04:59N 51°18' E 004°16'0 0.0
2017-Aug-30 04:29N 51°18' E 004°16'0 0.0
2017-Aug-30 03:59N 51°18' E 004°16'0 0.0
2017-Aug-30 03:29N 51°18' E 004°16'0 0.0
2017-Aug-30 02:59N 51°18' E 004°16'0 0.0
2017-Aug-30 02:29N 51°18' E 004°16'0 0.0
2017-Aug-30 01:59N 51°18' E 004°16'  
Track history (hours):
 
Tides and Currents Weather Stations Pressure Air Temp Water Temp Dewpoint Dewpoint Depression Visibility Wind Speed Wind Dir Waves Ship Positions

Cosco Belgium

Last reported at 2017-Sep-09 01:30 UTC. Time now 2017-Sep-21 05:27 UTC.
Position N 31°23' E 032°21'.
Warning: this ship's position is 12 days out of date.

Length 366 m; draft 11.7 m.

Type: Ship (hazmat cat A). MMSI: 477427500.

Date/timePositionNaut miles runAvg speedWind from/ knotsBaromVisibWave heightAir tempDewpointWater temp
2017-Sep-09 01:30N 31°23' E 032°21'50 4.9
2017-Sep-08 15:15N 31°54' E 031°36'313.3
2017-Sep-08 15:00N 31°56' E 031°32'6913.5
2017-Sep-08 09:54N 32°22' E 030°17'  
2017-Sep-06 02:06N 36°27' E 014°43'215.6
2017-Sep-06 02:00N 36°28' E 014°41'815.5
2017-Sep-06 01:30N 36°29' E 014°32'715.2
2017-Sep-06 01:00N 36°31' E 014°23'815.1
2017-Sep-06 00:30N 36°33' E 014°14'815.3
2017-Sep-06 00:00N 36°34' E 014°04'815.2
2017-Sep-05 23:30N 36°36' E 013°55'715.1
2017-Sep-05 23:00N 36°37' E 013°46'815.0
2017-Sep-05 22:30N 36°39' E 013°37'714.8
2017-Sep-05 22:00N 36°41' E 013°28'714.6
2017-Sep-05 21:30N 36°43' E 013°19'714.6
2017-Sep-05 21:00N 36°44' E 013°10'714.5
2017-Sep-05 20:30N 36°46' E 013°01'714.4
2017-Sep-05 20:00N 36°47' E 012°53'1314.4
2017-Sep-05 19:07N 36°51' E 012°37'414.7
2017-Sep-05 18:50N 36°53' E 012°33'37914.3
2017-Sep-04 16:16N 37°08' E 004°38'313.7
2017-Sep-04 16:00N 37°07' E 004°34'713.8
2017-Sep-04 15:30N 37°07' E 004°25'714.1
2017-Sep-04 15:00N 37°06' E 004°16'714.5
2017-Sep-04 14:30N 37°06' E 004°07'714.6
2017-Sep-04 14:00N 37°05' E 003°58'714.4
2017-Sep-04 13:30N 37°04' E 003°49'1414.3
2017-Sep-04 12:33N 37°01' E 003°32'114.3
2017-Sep-04 12:30N 37°01' E 003°31'714.4
2017-Sep-04 12:00N 36°60' E 003°23'714.7
2017-Sep-04 11:30N 36°59' E 003°13'714.7
2017-Sep-04 11:00N 36°58' E 003°04'714.7
2017-Sep-04 10:30N 36°56' E 002°55'714.5
2017-Sep-04 10:00N 36°55' E 002°46'714.4
2017-Sep-04 09:30N 36°54' E 002°37'814.0
2017-Sep-04 08:58N 36°53' E 002°28'816.3
2017-Sep-04 08:29N 36°52' E 002°18'816.3
2017-Sep-04 08:00N 36°50' E 002°09'816.3
2017-Sep-04 07:30N 36°49' E 001°59'816.3
2017-Sep-04 07:00N 36°48' E 001°49'816.2
2017-Sep-04 06:30N 36°47' E 001°39'816.1
2017-Sep-04 06:00N 36°45' E 001°29'816.5
2017-Sep-04 05:30N 36°44' E 001°19'816.7
2017-Sep-04 05:00N 36°43' E 001°08'816.5
2017-Sep-04 04:30N 36°41' E 000°58'816.6
2017-Sep-04 04:00N 36°40' E 000°48'816.9
2017-Sep-04 03:30N 36°39' E 000°38'817.0
2017-Sep-04 03:00N 36°37' E 000°27'816.9
2017-Sep-04 02:30N 36°36' E 000°17'916.9
2017-Sep-04 02:00N 36°35' E 000°06'816.8
2017-Sep-04 01:30N 36°33' W 000°04'816.8
2017-Sep-04 01:00N 36°33' W 000°15'816.4
2017-Sep-04 00:30N 36°31' W 000°25'816.2
2017-Sep-04 00:00N 36°29' W 000°34'816.2
2017-Sep-03 23:30N 36°28' W 000°44'816.4
2017-Sep-03 23:00N 36°27' W 000°55'816.7
2017-Sep-03 22:29N 36°25' W 001°05'817.2
2017-Sep-03 22:00N 36°24' W 001°15'917.1
2017-Sep-03 21:30N 36°22' W 001°26'817.1
2017-Sep-03 21:00N 36°21' W 001°36'917.4
2017-Sep-03 20:30N 36°20' W 001°47'917.7
2017-Sep-03 20:00N 36°18' W 001°58'917.9
2017-Sep-03 19:29N 36°17' W 002°09'917.9
2017-Sep-03 19:00N 36°16' W 002°20'1117.7
2017-Sep-03 18:22N 36°14' W 002°33'717.6
2017-Sep-03 18:00N 36°13' W 002°41'10416.7
2017-Sep-03 11:48N 36°01' W 004°48'516.2
2017-Sep-03 11:30N 36°00' W 004°54'1117.0
2017-Sep-03 10:52N 35°60' W 005°08'617.0
2017-Sep-03 10:30N 35°59' W 005°15'816.7
2017-Sep-03 10:00N 35°58' W 005°25'3515.4
2017-Sep-03 07:44N 35°55' W 006°08'415.6
2017-Sep-03 07:28N 35°54' W 006°13'915.6
2017-Sep-03 06:55N 35°56' W 006°24'8716.0
2017-Sep-03 01:27N 36°18' W 008°08'716.7
2017-Sep-03 01:00N 36°20' W 008°17'916.6
2017-Sep-03 00:27N 36°23' W 008°28'716.3
2017-Sep-03 00:00N 36°25' W 008°37'816.4
2017-Sep-02 23:30N 36°27' W 008°47'816.6
2017-Sep-02 23:00N 36°29' W 008°57'816.5
2017-Sep-02 22:30N 36°32' W 009°06'816.5
2017-Sep-02 22:00N 36°34' W 009°16'816.5
2017-Sep-02 21:30N 36°39' W 009°24'917.1
2017-Sep-02 21:00N 36°46' W 009°31'816.4
2017-Sep-02 20:30N 36°53' W 009°35'917.1
2017-Sep-02 20:00N 37°02' W 009°37'817.0
2017-Sep-02 19:30N 37°10' W 009°40'917.2
2017-Sep-02 19:00N 37°18' W 009°42'917.3
2017-Sep-02 18:30N 37°27' W 009°45'917.0
2017-Sep-02 18:00N 37°35' W 009°47'816.6
2017-Sep-02 17:30N 37°43' W 009°50'816.6
2017-Sep-02 17:00N 37°51' W 009°52'816.9
2017-Sep-02 16:30N 37°59' W 009°54'917.3
2017-Sep-02 16:00N 38°08' W 009°56'917.3
2017-Sep-02 15:30N 38°16' W 009°59'816.7
2017-Sep-02 15:00N 38°24' W 010°01'816.5
2017-Sep-02 14:30N 38°33' W 010°04'816.5
2017-Sep-02 14:00N 38°41' W 010°06'816.4
2017-Sep-02 13:30N 38°49' W 010°07'816.8
2017-Sep-02 13:00N 38°57' W 010°08'816.8
2017-Sep-02 12:30N 39°05' W 010°08'816.9
2017-Sep-02 12:01N 39°14' W 010°07'816.7
2017-Sep-02 11:30N 39°22' W 010°07'816.5
2017-Sep-02 11:00N 39°30' W 010°07'816.8
2017-Sep-02 10:30N 39°39' W 010°06'816.8
2017-Sep-02 10:00N 39°47' W 010°06'816.7
2017-Sep-02 09:30N 39°56' W 010°06'816.6
2017-Sep-02 09:01N 40°04' W 010°06'816.5
2017-Sep-02 08:30N 40°12' W 010°06'816.2
2017-Sep-02 08:00N 40°20' W 010°06'816.3
2017-Sep-02 07:30N 40°29' W 010°06'816.6
2017-Sep-02 07:00N 40°37' W 010°06'816.5
2017-Sep-02 06:30N 40°45' W 010°06'52816.2
2017-Aug-31 21:55N 48°58' W 005°40'916.2
2017-Aug-31 21:20N 49°04' W 005°30'4616.6
2017-Aug-31 18:33N 49°35' W 004°37'116.6
2017-Aug-31 18:29N 49°36' W 004°36'916.6
2017-Aug-31 17:57N 49°42' W 004°26'716.5
2017-Aug-31 17:30N 49°47' W 004°17'816.4
2017-Aug-31 17:00N 49°52' W 004°08'816.1
2017-Aug-31 16:30N 49°57' W 003°58'815.9
2017-Aug-31 16:00N 50°03' W 003°49'815.6
2017-Aug-31 15:30N 50°08' W 003°41'815.4
2017-Aug-31 15:00N 50°14' W 003°33'815.6
2017-Aug-31 14:30N 50°21' W 003°28'5 9.6
2017-Aug-31 14:00N 50°26' W 003°25'816.2
2017-Aug-31 13:30N 50°26' W 003°12'917.7
2017-Aug-31 13:00N 50°26' W 002°58'917.3
2017-Aug-31 12:30N 50°25' W 002°45'917.4
2017-Aug-31 12:00N 50°26' W 002°31'917.7
2017-Aug-31 11:30N 50°26' W 002°17'1418.2
2017-Aug-31 10:44N 50°27' W 001°55'418.5
2017-Aug-31 10:30N 50°27' W 001°49'1018.8
2017-Aug-31 09:59N 50°28' W 001°33'918.9
2017-Aug-31 09:30N 50°28' W 001°19'1118.9
2017-Aug-31 08:56N 50°29' W 001°02'818.8
2017-Aug-31 08:30N 50°29' W 000°50'918.6
2017-Aug-31 08:00N 50°30' W 000°35'918.8
2017-Aug-31 07:30N 50°30' W 000°20'918.4
2017-Aug-31 07:00N 50°31' W 000°06'918.4
2017-Aug-31 06:30N 50°32' E 000°08'918.2
2017-Aug-31 06:00N 50°34' E 000°22'918.0
2017-Aug-31 05:30N 50°37' E 000°36'917.9
2017-Aug-31 05:00N 50°43' E 000°47'917.8
2017-Aug-31 04:30N 50°48' E 000°58'917.8
2017-Aug-31 04:00N 50°54' E 001°08'918.1
2017-Aug-31 03:30N 50°60' E 001°19'918.9
2017-Aug-31 03:00N 51°06' E 001°31'1019.4
2017-Aug-31 02:30N 51°12' E 001°43'919.0
2017-Aug-31 02:00N 51°19' E 001°53'816.0
2017-Aug-31 01:30N 51°24' E 002°03'917.5
2017-Aug-31 01:00N 51°20' E 002°16'918.3
2017-Aug-31 00:30N 51°22' E 002°31'714.7
2017-Aug-31 00:00N 51°23' E 002°42'510.6
2017-Aug-30 23:30N 51°25' E 002°49'917.4
2017-Aug-30 23:00N 51°25' E 003°03'918.1
2017-Aug-30 22:30N 51°25' E 003°18'917.6
2017-Aug-30 22:00N 51°25' E 003°32'510.8
2017-Aug-30 21:30N 51°26' E 003°40'611.8
2017-Aug-30 21:00N 51°22' E 003°46'612.9
2017-Aug-30 20:30N 51°23' E 003°56'4 8.1
2017-Aug-30 20:00N 51°24' E 004°02'4 9.0
2017-Aug-30 19:30N 51°22' E 004°08'4 8.5
2017-Aug-30 19:00N 51°21' E 004°15'3 6.8
2017-Aug-30 18:30N 51°18' E 004°16'0 0.6
2017-Aug-30 17:59N 51°18' E 004°16'0 0.0
2017-Aug-30 17:29N 51°18' E 004°16'0 0.0
2017-Aug-30 16:59N 51°18' E 004°16'0 0.0
2017-Aug-30 16:29N 51°18' E 004°16'0 0.0
2017-Aug-30 15:59N 51°18' E 004°16'0 0.0
2017-Aug-30 15:29N 51°18' E 004°16'0 0.0
2017-Aug-30 14:59N 51°18' E 004°16'0 0.0
2017-Aug-30 14:29N 51°18' E 004°16'0 0.0
2017-Aug-30 13:59N 51°18' E 004°16'0 0.0
2017-Aug-30 13:29N 51°18' E 004°16'0 0.0
2017-Aug-30 12:59N 51°18' E 004°16'0 0.0
2017-Aug-30 12:29N 51°18' E 004°16'0 0.0
2017-Aug-30 11:59N 51°18' E 004°16'0 0.0
2017-Aug-30 11:29N 51°18' E 004°16'0 0.0
2017-Aug-30 10:59N 51°18' E 004°16'0 0.0
2017-Aug-30 10:26N 51°18' E 004°16'0 0.0
2017-Aug-30 09:59N 51°18' E 004°16'0 0.0
2017-Aug-30 09:26N 51°18' E 004°16'0 0.0
2017-Aug-30 08:56N 51°18' E 004°16'0 0.0
2017-Aug-30 08:29N 51°18' E 004°16'0 0.0
2017-Aug-30 07:59N 51°18' E 004°16'0 0.0
2017-Aug-30 07:29N 51°18' E 004°16'0 0.0
2017-Aug-30 06:59N 51°18' E 004°16'0 0.0
2017-Aug-30 06:26N 51°18' E 004°16'0 0.0
2017-Aug-30 05:59N 51°18' E 004°16'0 0.0
2017-Aug-30 05:29N 51°18' E 004°16'0 0.0
2017-Aug-30 04:59N 51°18' E 004°16'0 0.0
2017-Aug-30 04:29N 51°18' E 004°16'0 0.0
2017-Aug-30 03:59N 51°18' E 004°16'0 0.0
2017-Aug-30 03:29N 51°18' E 004°16'0 0.0
2017-Aug-30 02:59N 51°18' E 004°16'0 0.0
2017-Aug-30 02:29N 51°18' E 004°16'0 0.0
2017-Aug-30 01:59N 51°18' E 004°16'  

Dump ship's entire track history